Pagrindinis puslapis
METAR-TAF:

METAR-TAF

Oro uostai :

Barankilija, Kolumbija

platuma: 10-53N, ilguma: 074-47W, Aukštis: 14 m

Dabartinis oras

Ataskaita buvo paskelbta 20 minutes, ne 13:00 UTC
Vėjas 4 kt iš Rytų/Šiaurės Rytų
Temperatūra 28°C
Drėgmė 84%
Slėgis 1009 hPa
Matomumas 10 km arba daugiau
Mažai debesys ne aukštis 1200 ft

METAR: SKBQ 141300Z 07004KT 9999 FEW012 28/25 Q1009 NOSIG

Laikas: 08:20 (13:20 UTC)

Prognozė

Ataskaita buvo paskelbta 2 valandos ir 50 minutes, ne 10:30 UTC
Prognozė galioja nuo 14 metu 12 UTC su 15 metu 12 UTC
Vėjas 5 kt iš Šiaurės Rytų
Matomumas 10 km arba daugiau
nėra debesų žemiau 1500 m ir nėra kamuolinių lietaus debesų
Tapsmas
nuo 14 metu 18 UTC su 14 metu 20 UTC
Vėjas 15 kt iš Šiaurės/Šiaurės Rytų
Laikinai
nuo 14 metu 23 UTC su 15 metu 03 UTC
Vėjas 15 kt iš Šiaurės su gūsio iki 25 kt
Tapsmas
nuo 15 metu 08 UTC su 15 metu 10 UTC
Vėjas 5 kt iš Šiaurės/Šiaurės Rytų

TAF: SKBQ 141030Z 1412/1512 04005KT CAVOK BECMG 1418/1420 02015KT TEMPO 1423/1503 01015G25KT BECMG 1508/1510 03005KT TX34/1417Z TN26/1509Z

Orai ataskaitas ir orų prognozės (METAR, TAF).

turimą stotys yra geltonos ir raudonos taškus žemėlapyje.

Perkelti pele per norėdami pamatyti stoties vardą.

Tada spustelėkite, norėdami matyti oro stebėjimo ir prognozės.

Norėdami pakeisti žemėlapį: spustelėkite ant žalios mygtukų su juodo kryžiaus žemyn,; žalią mygtuką su brūkšneliu, jei norite nutolinti; arba žalių rodyklių gretimoms žemėlapius.


METAR-TAF: